Time;durP1;ratioP1;P1;durP2;ratioP2;P2;SDS_P1;SDS_P2;PMS_P1;PMS_P2;Temp;Humidity;BMP_temperature;BMP_pressure;BME280_temperature;BME280_humidity;BME280_pressure;Samples;Min_cycle;Max_cycle;Signal;HPM_P1;HPM_P2
2021/11/23 00:02:06;;;;;;;396.70;304.88;;;9.80;96.00;;;8.90;100.00;100462.47;5092386;28;20436;-63
2021/11/23 00:04:34;;;;;;;395.38;302.98;;;9.80;96.30;;;8.92;100.00;100454.09;5092493;28;20924;-67
2021/11/23 00:07:02;;;;;;;399.88;296.80;;;9.80;96.40;;;8.88;100.00;100453.84;5091743;28;20486;-66
2021/11/23 00:09:32;;;;;;;402.13;298.23;;;9.70;96.30;;;8.90;100.00;100456.28;5092402;28;20757;-65
2021/11/23 00:12:00;;;;;;;400.45;305.17;;;9.70;96.50;;;8.90;100.00;100456.28;5091864;28;20449;-65
2021/11/23 00:14:28;;;;;;;397.38;299.55;;;9.70;96.30;;;8.90;100.00;100456.28;5092181;28;20487;-65
2021/11/23 00:16:56;;;;;;;395.60;300.00;;;9.70;96.50;;;8.83;100.00;100447.72;5091246;28;20414;-64
2021/11/23 00:19:24;;;;;;;395.20;295.80;;;9.70;96.60;;;8.76;100.00;100448.88;5092095;28;20420;-64
2021/11/23 00:21:52;;;;;;;394.92;294.80;;;9.60;96.80;;;8.81;100.00;100448.03;5091855;28;20832;-64
2021/11/23 00:24:21;;;;;;;397.25;293.77;;;9.60;97.00;;;8.93;100.00;100439.53;5092008;28;20452;-65
2021/11/23 00:26:50;;;;;;;398.73;300.40;;;9.80;97.40;;;9.01;100.00;100436.19;5090029;28;20441;-64
2021/11/23 00:29:18;;;;;;;401.95;302.73;;;9.80;97.10;;;9.02;100.00;100438.59;5091976;28;20414;-68
2021/11/23 00:31:46;;;;;;;399.45;300.75;;;9.90;97.20;;;9.03;100.00;100428.59;5091651;28;20504;-63
2021/11/23 00:34:14;;;;;;;396.90;302.95;;;9.90;97.20;;;9.12;100.00;100422.28;5091654;28;20919;-62
2021/11/23 00:36:42;;;;;;;401.15;306.23;;;9.90;97.20;;;9.21;100.00;100419.75;5091006;28;20965;-64
2021/11/23 00:39:10;;;;;;;398.15;302.58;;;10.00;96.50;;;9.27;100.00;100416.66;5091895;28;20453;-65
2021/11/23 00:41:38;;;;;;;398.30;306.08;;;10.10;96.50;;;9.32;100.00;100413.13;5091430;28;20418;-67
2021/11/23 00:44:08;;;;;;;398.67;308.90;;;10.10;96.50;;;9.28;100.00;100415.59;5091732;28;20467;-65
2021/11/23 00:46:36;;;;;;;401.83;311.15;;;10.10;96.50;;;9.30;100.00;100412.63;5090971;28;20410;-63
2021/11/23 00:49:04;;;;;;;399.52;306.92;;;10.10;96.70;;;9.33;100.00;100418.22;5091574;28;20542;-65
2021/11/23 00:51:32;;;;;;;399.50;310.30;;;10.20;96.80;;;9.41;100.00;100413.25;5091842;28;20893;-67
2021/11/23 00:54:00;;;;;;;397.58;313.42;;;10.20;96.80;;;9.48;100.00;100409.13;5091660;28;20863;-64
2021/11/23 00:56:28;;;;;;;402.52;320.02;;;10.30;97.00;;;9.51;100.00;100408.53;5091253;28;20452;-66
2021/11/23 00:58:56;;;;;;;405.05;323.80;;;10.40;97.20;;;9.64;100.00;100407.78;5091846;28;20448;-65
2021/11/23 01:01:25;;;;;;;402.48;330.15;;;10.40;97.40;;;9.76;100.00;100410.03;5091321;28;20444;-61
2021/11/23 01:03:56;;;;;;;406.83;332.63;;;10.60;97.30;;;9.91;100.00;100393.56;5091902;28;20446;-64
2021/11/23 01:06:25;;;;;;;408.73;337.17;;;10.70;97.30;;;10.01;100.00;100395.31;5090992;28;20478;-66
2021/11/23 01:08:53;;;;;;;415.37;350.93;;;10.80;97.10;;;10.14;100.00;100398.09;5091576;28;20406;-68
2021/11/23 01:11:22;;;;;;;409.65;355.40;;;11.00;97.20;;;10.24;100.00;100384.38;5091434;28;20413;-64
2021/11/23 01:13:51;;;;;;;409.05;361.13;;;11.00;97.20;;;10.35;100.00;100387.72;5091145;28;20487;-65
2021/11/23 01:16:19;;;;;;;412.27;366.63;;;11.20;97.10;;;10.43;100.00;100376.19;5089167;28;20436;-63
2021/11/23 01:18:49;;;;;;;410.38;365.08;;;11.30;97.00;;;10.47;100.00;100382.63;5090745;28;20463;-67
2021/11/23 01:21:17;;;;;;;418.08;372.05;;;11.30;97.00;;;10.51;100.00;100390.94;5091091;28;20418;-66
2021/11/23 01:23:45;;;;;;;418.65;373.05;;;11.30;97.10;;;10.51;100.00;100382.84;5091573;28;20734;-65
2021/11/23 01:26:13;;;;;;;425.20;379.30;;;11.30;97.00;;;10.40;100.00;100382.22;5090956;28;20826;-64
2021/11/23 01:28:41;;;;;;;423.95;378.33;;;11.30;97.10;;;10.38;100.00;100379.00;5091119;28;20540;-62
2021/11/23 01:31:09;;;;;;;414.67;369.20;;;11.20;97.30;;;10.43;100.00;100370.03;5091433;28;20835;-66
2021/11/23 01:33:37;;;;;;;414.10;368.50;;;11.20;97.60;;;10.43;100.00;100362.69;5091106;28;20433;-65
2021/11/23 01:36:07;;;;;;;409.33;361.20;;;11.30;97.70;;;10.45;100.00;100367.81;5090507;28;20921;-63
2021/11/23 01:38:35;;;;;;;412.58;366.73;;;11.30;97.90;;;10.56;100.00;100364.59;5090882;28;21191;-65
2021/11/23 01:41:03;;;;;;;412.98;367.38;;;11.40;97.90;;;10.70;100.00;100361.91;5090662;28;20413;-67
2021/11/23 01:43:31;;;;;;;425.48;379.50;;;11.50;97.90;;;10.78;100.00;100361.19;5091093;28;20406;-64
2021/11/23 01:45:59;;;;;;;420.33;374.90;;;11.60;97.80;;;10.86;100.00;100369.41;5090488;28;20449;-64
2021/11/23 01:48:28;;;;;;;427.15;381.48;;;11.70;97.90;;;10.92;100.00;100361.97;5090606;28;20911;-68
2021/11/23 01:50:56;;;;;;;432.45;386.35;;;11.70;97.90;;;10.94;100.00;100368.69;5089591;28;20422;-63
2021/11/23 01:53:25;;;;;;;433.43;387.07;;;11.80;98.00;;;11.00;100.00;100380.22;5090317;28;20851;-65
2021/11/23 01:55:54;;;;;;;434.50;388.33;;;11.80;98.00;;;11.08;100.00;100384.91;5088194;28;20497;-68
2021/11/23 01:58:22;;;;;;;441.98;395.67;;;11.90;98.10;;;11.16;100.00;100383.38;5088688;28;20954;-69
2021/11/23 02:00:50;;;;;;;446.20;399.95;;;12.00;98.20;;;11.12;100.00;100379.69;5089227;28;20956;-65
2021/11/23 02:03:19;;;;;;;440.63;394.63;;;11.90;98.20;;;11.10;100.00;100381.88;5089940;28;20491;-66
2021/11/23 02:05:47;;;;;;;441.98;395.80;;;11.90;98.40;;;11.09;100.00;100386.50;5088860;28;20410;-65
2021/11/23 02:08:16;;;;;;;440.02;393.90;;;11.90;98.40;;;11.04;100.00;100386.59;5090400;28;20427;-67
2021/11/23 02:10:45;;;;;;;439.45;393.35;;;11.90;98.60;;;11.02;100.00;100385.31;5090387;28;20497;-65
2021/11/23 02:13:14;;;;;;;446.97;400.97;;;11.90;98.70;;;11.00;100.00;100390.22;5089711;28;20472;-65
2021/11/23 02:15:42;;;;;;;438.85;392.98;;;11.80;98.70;;;10.98;100.00;100385.09;5089681;28;20417;-66
2021/11/23 02:18:23;;;;;;;442.43;396.33;;;11.80;98.80;;;10.99;100.00;100381.31;5090433;28;20452;-66
2021/11/23 02:20:53;;;;;;;439.83;393.73;;;11.80;99.10;;;10.98;100.00;100388.63;5090322;28;20849;-67
2021/11/23 02:23:23;;;;;;;440.73;394.60;;;11.80;99.00;;;10.97;100.00;100391.66;5090200;28;20738;-68
2021/11/23 02:25:51;;;;;;;437.80;391.85;;;11.80;98.90;;;10.97;100.00;100389.72;5089705;28;20410;-63
2021/11/23 02:28:20;;;;;;;432.42;386.63;;;11.80;98.90;;;10.90;100.00;100381.22;5087054;28;20621;-67
2021/11/23 02:30:52;;;;;;;433.33;387.40;;;11.70;98.90;;;10.82;100.00;100384.63;5090031;28;20884;-64
2021/11/23 02:33:24;;;;;;;431.88;386.02;;;11.70;99.10;;;10.72;100.00;100379.44;5089714;28;20422;-68
2021/11/23 02:35:56;;;;;;;429.20;383.27;;;11.60;99.10;;;10.58;100.00;100384.03;5089721;28;20881;-67
2021/11/23 02:38:27;;;;;;;423.45;377.95;;;11.40;99.00;;;10.45;100.00;100378.63;5090067;28;20449;-68
2021/11/23 02:40:55;;;;;;;415.88;370.48;;;11.40;99.00;;;10.35;100.00;100377.72;5089879;28;20892;-66
2021/11/23 02:43:23;;;;;;;407.52;362.40;;;11.20;99.00;;;10.38;100.00;100374.41;5089888;28;20445;-69
2021/11/23 02:45:52;;;;;;;408.50;359.88;;;11.20;99.10;;;10.45;100.00;100376.72;5089522;28;20921;-68
2021/11/23 02:48:21;;;;;;;407.85;356.58;;;11.30;99.10;;;10.51;100.00;100382.84;5089892;28;20423;-70
2021/11/23 02:50:55;;;;;;;412.73;365.88;;;11.30;99.10;;;10.57;100.00;100382.44;5089856;28;20808;-66
2021/11/23 02:53:25;;;;;;;413.13;364.15;;;11.40;99.30;;;10.66;100.00;100385.25;5089926;28;20524;-66
2021/11/23 02:55:53;;;;;;;408.13;358.83;;;11.50;99.30;;;10.69;100.00;100385.44;5089066;28;20475;-69
2021/11/23 02:58:21;;;;;;;413.65;368.02;;;11.50;99.30;;;10.70;100.00;100389.72;5089606;28;20412;-68
2021/11/23 03:00:50;;;;;;;416.63;370.87;;;11.50;99.20;;;10.70;100.00;100384.31;5089834;28;20413;-67
2021/11/23 03:03:18;;;;;;;421.15;375.60;;;11.50;99.20;;;10.66;100.00;100374.41;5089499;28;20467;-65
2021/11/23 03:05:46;;;;;;;414.23;366.87;;;11.50;99.00;;;10.65;100.00;100383.63;5089162;28;20497;-69
2021/11/23 03:08:14;;;;;;;411.80;366.33;;;11.50;99.00;;;10.71;100.00;100385.13;5089647;28;20845;-63
2021/11/23 03:10:44;;;;;;;413.90;368.10;;;11.50;99.10;;;10.75;100.00;100384.25;5089440;28;20501;-67
2021/11/23 03:13:12;;;;;;;414.77;368.92;;;11.60;99.10;;;10.82;100.00;100379.22;5089767;28;20437;-63
2021/11/23 03:15:40;;;;;;;420.63;375.10;;;11.60;99.40;;;10.85;100.00;100389.41;5089072;28;20464;-70
2021/11/23 03:18:09;;;;;;;420.08;374.50;;;11.70;99.00;;;10.85;100.00;100383.25;5089526;28;20413;-62
2021/11/23 03:20:37;;;;;;;424.25;378.08;;;11.70;99.10;;;10.85;100.00;100377.81;5089313;28;20986;-65
2021/11/23 03:23:07;;;;;;;422.88;377.25;;;11.70;99.20;;;10.93;100.00;100369.00;5089347;28;20438;-67
2021/11/23 03:25:35;;;;;;;425.60;379.75;;;11.80;99.10;;;11.01;100.00;100373.69;5091768;28;20437;-66
2021/11/23 03:28:06;;;;;;;428.15;382.35;;;11.80;98.80;;;11.08;100.00;100376.78;5093526;28;20417;-63
2021/11/23 03:30:35;;;;;;;423.80;378.30;;;11.90;98.70;;;11.13;100.00;100379.38;5093604;28;20506;-63
2021/11/23 03:33:06;;;;;;;435.63;389.65;;;11.90;98.40;;;11.18;100.00;100370.34;5093234;28;20504;-66
2021/11/23 03:35:38;;;;;;;436.35;390.30;;;12.00;98.30;;;11.22;100.00;100369.44;5089639;28;20516;-66
2021/11/23 03:38:07;;;;;;;433.75;387.98;;;12.00;98.10;;;11.26;100.00;100367.72;5093220;28;20916;-66
2021/11/23 03:40:39;;;;;;;439.38;393.20;;;12.10;98.00;;;11.25;100.00;100359.88;5093085;28;20509;-67
2021/11/23 03:43:12;;;;;;;440.38;394.27;;;12.10;97.80;;;11.28;100.00;100364.69;5093243;28;20459;-65
2021/11/23 03:45:40;;;;;;;442.15;396.33;;;12.10;97.70;;;11.29;100.00;100360.91;5092105;28;20408;-67
2021/11/23 03:48:09;;;;;;;436.85;391.20;;;12.10;97.70;;;11.32;100.00;100363.00;5091523;28;20928;-63
2021/11/23 03:50:38;;;;;;;437.20;391.33;;;12.10;97.70;;;11.34;100.00;100366.19;5092883;28;20496;-64
2021/11/23 03:53:06;;;;;;;437.75;391.80;;;12.10;97.70;;;11.34;100.00;100371.59;5093097;28;20768;-62
2021/11/23 03:55:36;;;;;;;439.98;393.98;;;12.10;97.70;;;11.30;100.00;100363.31;5092226;28;20426;-70
2021/11/23 03:58:04;;;;;;;430.77;385.08;;;12.10;97.80;;;11.32;100.00;100360.28;5093144;28;20408;-65
2021/11/23 04:00:34;;;;;;;440.60;394.50;;;12.10;97.90;;;11.35;100.00;100354.25;5092902;28;20448;-69
2021/11/23 04:03:02;;;;;;;434.88;389.00;;;12.10;97.90;;;11.31;100.00;100356.78;5092762;28;20826;-63
2021/11/23 04:05:30;;;;;;;432.10;386.57;;;12.10;97.90;;;11.24;100.00;100356.41;5092425;28;20471;-67
2021/11/23 04:07:58;;;;;;;434.52;388.73;;;12.10;97.80;;;11.21;100.00;100361.63;5092739;28;20419;-65
2021/11/23 04:10:26;;;;;;;423.67;378.08;;;12.10;97.70;;;11.20;100.00;100366.22;5093111;28;20786;-65
2021/11/23 04:12:54;;;;;;;428.77;383.45;;;12.10;97.70;;;11.21;100.00;100367.03;5092680;28;20500;-68
2021/11/23 04:15:23;;;;;;;440.77;394.50;;;12.10;97.60;;;11.27;100.00;100372.03;5092089;28;20451;-66
2021/11/23 04:17:52;;;;;;;438.98;393.00;;;12.10;97.40;;;11.30;100.00;100371.44;5092845;28;20449;-66
2021/11/23 04:20:20;;;;;;;437.75;392.17;;;12.10;97.20;;;11.32;100.00;100360.28;5092497;28;20969;-66
2021/11/23 04:22:48;;;;;;;444.10;398.15;;;12.20;97.10;;;11.35;100.00;100362.38;5092585;28;20895;-67
2021/11/23 04:25:17;;;;;;;442.90;397.25;;;12.20;97.00;;;11.35;100.00;100365.09;5092054;28;20410;-64
2021/11/23 04:27:45;;;;;;;439.60;393.65;;;12.20;96.90;;;11.38;100.00;100364.47;5092374;28;20868;-65
2021/11/23 04:30:14;;;;;;;451.17;405.02;;;12.20;96.70;;;11.39;100.00;100361.47;5092437;28;20869;-66
2021/11/23 04:32:43;;;;;;;441.93;396.03;;;12.20;96.60;;;11.39;100.00;100363.38;5092388;28;20437;-63
2021/11/23 04:35:14;;;;;;;434.95;389.40;;;12.20;96.50;;;11.40;100.00;100362.25;5091450;28;20422;-66
2021/11/23 04:37:42;;;;;;;443.80;398.00;;;12.20;96.40;;;11.37;100.00;100369.09;5092296;28;20538;-68
2021/11/23 04:40:13;;;;;;;439.13;393.30;;;12.20;96.30;;;11.35;100.00;100368.59;5091974;28;20467;-64
2021/11/23 04:42:43;;;;;;;446.30;400.83;;;12.20;96.30;;;11.34;100.00;100367.00;5091978;28;20479;-69
2021/11/23 04:45:14;;;;;;;444.87;399.13;;;12.20;96.20;;;11.34;100.00;100369.69;5092084;28;20437;-68
2021/11/23 04:47:42;;;;;;;444.05;398.15;;;12.20;96.20;;;11.36;100.00;100374.81;5091978;28;20409;-64
2021/11/23 04:50:14;;;;;;;442.52;396.83;;;12.20;96.20;;;11.32;100.00;100382.75;5092201;28;20834;-69
2021/11/23 04:52:43;;;;;;;443.40;397.80;;;12.10;96.40;;;11.28;100.00;100373.63;5091897;28;20479;-64
2021/11/23 04:55:11;;;;;;;441.77;396.25;;;12.10;96.60;;;11.21;100.00;100378.66;5091779;28;20468;-67
2021/11/23 04:57:40;;;;;;;444.83;399.13;;;12.00;96.60;;;11.15;100.00;100371.78;5091697;28;20475;-65
2021/11/23 05:00:12;;;;;;;438.08;392.38;;;12.00;96.60;;;11.10;100.00;100377.28;5091749;28;20475;-66
2021/11/23 05:02:40;;;;;;;437.30;391.70;;;11.90;96.60;;;11.04;100.00;100380.38;5091793;28;20417;-69
2021/11/23 05:05:09;;;;;;;438.63;392.88;;;11.90;96.70;;;10.98;100.00;100377.00;5091723;28;20414;-64
2021/11/23 05:07:39;;;;;;;422.58;377.10;;;11.80;96.80;;;11.01;100.00;100383.69;5091270;28;20449;-65
2021/11/23 05:10:11;;;;;;;433.20;387.60;;;11.80;97.00;;;11.01;100.00;100383.69;5091797;28;20450;-67
2021/11/23 05:12:39;;;;;;;425.80;380.37;;;11.80;97.00;;;11.05;100.00;100382.00;5091642;28;20478;-69
2021/11/23 05:15:09;;;;;;;416.98;371.85;;;11.90;97.00;;;11.05;100.00;100387.41;5091409;28;20974;-67
2021/11/23 05:17:38;;;;;;;421.52;376.35;;;11.90;97.00;;;10.98;100.00;100394.03;5091075;28;20459;-68
2021/11/23 05:20:08;;;;;;;421.80;376.63;;;11.90;96.80;;;10.84;100.00;100393.25;5091368;28;20414;-66
2021/11/23 05:22:38;;;;;;;412.00;367.10;;;11.70;96.50;;;10.67;100.00;100387.63;5091389;28;20414;-63
2021/11/23 05:25:08;;;;;;;415.88;370.88;;;11.60;96.50;;;10.53;100.00;100391.44;5091419;28;20405;-66
2021/11/23 05:27:36;;;;;;;405.05;360.30;;;11.40;96.70;;;10.48;100.00;100386.13;5091150;28;20453;-68
2021/11/23 05:30:06;;;;;;;401.85;355.80;;;11.40;96.80;;;10.43;100.00;100400.53;5090973;28;20872;-65
2021/11/23 05:32:34;;;;;;;404.60;355.45;;;11.40;96.80;;;10.40;100.00;100396.53;5091600;28;20840;-67
2021/11/23 05:35:02;;;;;;;405.45;344.23;;;11.30;96.80;;;10.40;100.00;100395.72;5091058;28;20466;-69
2021/11/23 05:37:31;;;;;;;405.58;359.90;;;11.30;96.80;;;10.48;100.00;100389.63;5090653;28;20441;-64
2021/11/23 05:40:00;;;;;;;401.48;350.15;;;11.30;96.60;;;10.50;100.00;100387.44;5090890;28;20876;-63
2021/11/23 05:42:28;;;;;;;401.17;349.58;;;11.30;96.40;;;10.57;100.00;100389.75;5090779;28;20471;-68
2021/11/23 05:44:56;;;;;;;399.25;346.17;;;11.40;96.20;;;10.63;100.00;100375.81;5091143;28;20418;-69
2021/11/23 05:47:25;;;;;;;400.27;351.98;;;11.50;96.00;;;10.66;100.00;100380.63;5089417;28;20410;-68
2021/11/23 05:49:54;;;;;;;404.63;356.15;;;11.50;95.90;;;10.69;100.00;100388.16;5090957;28;20898;-69
2021/11/23 05:52:22;;;;;;;402.20;350.95;;;11.50;96.00;;;10.78;100.00;100401.75;5090832;28;20421;-68
2021/11/23 05:54:50;;;;;;;400.42;351.63;;;11.60;96.00;;;10.84;100.00;100398.66;5090852;28;20429;-67
2021/11/23 05:57:19;;;;;;;401.02;352.67;;;11.60;96.10;;;10.87;100.00;100406.16;5090045;28;20923;-67
2021/11/23 05:59:47;;;;;;;408.17;363.58;;;11.70;96.30;;;10.88;100.00;100399.63;5090828;28;20479;-64
2021/11/23 06:02:16;;;;;;;407.83;363.30;;;11.70;96.30;;;10.92;100.00;100406.06;5090770;28;20401;-62
2021/11/23 06:04:44;;;;;;;408.10;363.15;;;11.70;96.30;;;10.89;100.00;100405.84;5090700;28;20402;-65
2021/11/23 06:07:12;;;;;;;406.60;362.23;;;11.70;96.10;;;10.77;100.00;100406.38;5090027;28;20458;-68
2021/11/23 06:09:40;;;;;;;402.05;356.38;;;11.60;96.10;;;10.68;100.00;100408.16;5090388;28;20433;-63
2021/11/23 06:12:09;;;;;;;398.83;352.00;;;11.50;96.10;;;10.60;100.00;100402.66;5090458;28;20414;-64
2021/11/23 06:14:39;;;;;;;400.85;350.20;;;11.40;95.90;;;10.52;100.00;100403.38;5090614;28;20522;-69
2021/11/23 06:17:10;;;;;;;400.17;347.75;;;11.40;95.90;;;10.49;100.00;100412.06;5089850;28;20413;-68
2021/11/23 06:19:38;;;;;;;402.50;350.83;;;11.30;95.90;;;10.44;100.00;100402.13;5090286;28;20896;-66
2021/11/23 06:22:07;;;;;;;401.08;347.13;;;11.30;96.00;;;10.42;100.00;100409.75;5090095;28;20413;-67
2021/11/23 06:24:35;;;;;;;398.02;343.42;;;11.20;95.90;;;10.39;100.00;100408.47;5090153;28;20410;-69
2021/11/23 06:27:03;;;;;;;402.85;340.20;;;11.20;95.90;;;10.37;100.00;100421.44;5089623;28;20850;-63
2021/11/23 06:29:31;;;;;;;398.73;337.33;;;11.20;96.00;;;10.43;100.00;100416.75;5090249;28;20495;-70
2021/11/23 06:32:01;;;;;;;395.80;332.83;;;11.20;96.10;;;10.48;100.00;100415.88;5090064;28;21566;-68
2021/11/23 06:34:29;;;;;;;399.95;340.85;;;11.30;96.30;;;10.47;100.00;100408.84;5089907;28;20441;-64
2021/11/23 06:36:58;;;;;;;396.67;338.58;;;11.30;96.40;;;10.50;100.00;100411.75;5089340;28;20418;-63
2021/11/23 06:39:26;;;;;;;406.00;350.00;;;11.30;96.30;;;10.53;100.00;100405.75;5090030;28;20464;-68
2021/11/23 06:41:54;;;;;;;398.35;348.73;;;11.30;96.40;;;10.53;100.00;100408.47;5089879;28;20449;-66
2021/11/23 06:44:22;;;;;;;399.08;344.98;;;11.30;96.50;;;10.53;100.00;100408.47;5089845;28;20491;-66
2021/11/23 06:46:50;;;;;;;397.85;346.20;;;11.40;96.70;;;10.56;100.00;100412.47;5089165;28;20437;-65
2021/11/23 06:49:20;;;;;;;401.65;347.90;;;11.40;97.00;;;10.61;100.00;100409.69;5089699;28;20445;-63
2021/11/23 06:51:48;;;;;;;402.83;344.70;;;11.40;97.00;;;10.63;100.00;100410.16;5089766;28;20872;-70
2021/11/23 06:54:16;;;;;;;401.40;356.98;;;11.40;97.00;;;10.65;100.00;100405.25;5089884;28;20460;-65
2021/11/23 06:56:44;;;;;;;403.00;350.45;;;11.40;97.00;;;10.71;100.00;100412.97;5088766;28;20498;-66
2021/11/23 06:59:12;;;;;;;400.17;352.85;;;11.50;97.10;;;10.76;100.00;100412.88;5089573;28;20413;-66
2021/11/23 07:01:40;;;;;;;398.38;350.85;;;11.60;97.00;;;10.77;100.00;100419.88;5089655;28;20410;-62
2021/11/23 07:04:08;;;;;;;398.15;347.98;;;11.60;97.10;;;10.76;100.00;100417.50;5089775;28;20486;-66
2021/11/23 07:06:37;;;;;;;397.60;353.58;;;11.60;97.20;;;10.78;100.00;100426.91;5089026;28;20459;-67
2021/11/23 07:09:06;;;;;;;404.75;360.08;;;11.60;97.10;;;10.80;100.00;100424.69;5089642;28;20413;-62
2021/11/23 07:11:34;;;;;;;409.33;364.63;;;11.60;97.20;;;10.75;100.00;100424.00;5089485;28;20413;-68
2021/11/23 07:14:06;;;;;;;402.77;356.42;;;11.60;97.30;;;10.71;100.00;100421.09;5089368;28;20501;-68
2021/11/23 07:16:34;;;;;;;408.95;355.88;;;11.50;97.30;;;10.77;100.00;100429.91;5088954;28;20843;-61
2021/11/23 07:19:03;;;;;;;404.95;360.40;;;11.60;97.50;;;10.81;100.00;100420.91;5089515;28;20459;-65
2021/11/23 07:21:31;;;;;;;406.38;361.75;;;11.60;97.50;;;10.77;100.00;100425.28;5089533;28;20468;-67
2021/11/23 07:24:00;;;;;;;401.13;352.83;;;11.60;97.50;;;10.74;100.00;100425.91;5089364;28;20448;-66
2021/11/23 07:26:31;;;;;;;408.03;363.00;;;11.60;97.50;;;10.79;100.00;100433.13;5089019;28;20453;-63
2021/11/23 07:28:59;;;;;;;403.42;358.95;;;11.60;97.40;;;10.78;100.00;100426.91;5089316;28;20424;-64
2021/11/23 07:31:27;;;;;;;395.55;351.30;;;11.60;97.40;;;10.73;100.00;100445.91;5089592;28;20512;-61
2021/11/23 07:33:55;;;;;;;404.25;359.92;;;11.60;97.50;;;10.74;100.00;100442.13;5089573;28;20464;-65
2021/11/23 07:36:24;;;;;;;403.70;359.13;;;11.60;97.70;;;10.77;100.00;100433.41;5088736;28;20467;-67
2021/11/23 07:38:56;;;;;;;415.63;370.52;;;11.60;97.80;;;10.77;100.00;100446.94;5089381;28;20839;-69
2021/11/23 07:41:25;;;;;;;407.83;363.20;;;11.60;97.60;;;10.84;100.00;100447.34;5088995;28;20470;-66
2021/11/23 07:43:53;;;;;;;407.80;363.60;;;11.60;97.70;;;10.92;100.00;100445.81;5089443;28;20458;-70
2021/11/23 07:46:21;;;;;;;413.70;368.88;;;11.70;97.60;;;11.02;100.00;100451.03;5088620;28;20453;-68
2021/11/23 07:48:49;;;;;;;416.98;371.98;;;11.80;97.60;;;11.12;100.00;100456.25;5089180;28;20443;-63
2021/11/23 07:51:17;;;;;;;419.98;374.67;;;11.90;97.60;;;11.21;100.00;100456.34;5089264;28;20846;-65
2021/11/23 07:53:46;;;;;;;420.07;375.27;;;12.00;97.60;;;11.27;100.00;100449.72;5089422;28;20914;-67
2021/11/23 07:56:14;;;;;;;426.20;380.95;;;12.00;97.60;;;11.31;100.00;100446.09;5088520;28;20483;-64
2021/11/23 07:58:43;;;;;;;431.88;386.48;;;12.10;97.50;;;11.39;100.00;100453.53;5089340;28;20413;-62
2021/11/23 08:01:11;;;;;;;427.70;382.23;;;12.20;97.20;;;11.48;100.00;100450.88;5089097;28;20445;-68
2021/11/23 08:03:39;;;;;;;438.92;393.48;;;12.30;97.00;;;11.62;100.00;100446.22;5089253;28;20906;-64
2021/11/23 08:06:08;;;;;;;436.00;390.67;;;12.40;97.20;;;11.74;100.00;100451.94;5088424;28;20448;-66
2021/11/23 08:08:37;;;;;;;447.92;402.48;;;12.50;97.40;;;12.00;100.00;100454.88;5089018;28;20421;-62
2021/11/23 08:11:05;;;;;;;458.33;412.42;;;12.70;97.50;;;12.32;100.00;100462.72;5090594;28;20504;-62
2021/11/23 08:13:33;;;;;;;480.70;434.33;;;13.00;96.90;;;12.71;100.00;100440.28;5092969;28;20826;-69
2021/11/23 08:16:04;;;;;;;490.08;443.58;;;13.30;96.60;;;12.98;100.00;100445.47;5091871;28;20522;-65
2021/11/23 08:18:33;;;;;;;506.88;459.95;;;13.60;96.00;;;13.23;100.00;100446.72;5092762;28;20414;-68
2021/11/23 08:21:01;;;;;;;531.50;484.25;;;13.90;95.60;;;13.46;100.00;100450.13;5092422;28;20409;-68
2021/11/23 08:23:29;;;;;;;532.60;485.40;;;14.10;95.40;;;13.58;100.00;100448.38;5092645;28;20418;-64
2021/11/23 08:25:58;;;;;;;556.50;508.70;;;14.30;94.70;;;13.63;100.00;100452.84;5091908;28;20809;-66
2021/11/23 08:28:27;;;;;;;564.85;517.13;;;14.40;94.60;;;13.51;100.00;100448.03;5091161;28;20483;-63
2021/11/23 08:30:57;;;;;;;569.95;521.83;;;14.40;94.50;;;13.58;100.00;100458.44;5091840;28;20421;-64
2021/11/23 08:33:27;;;;;;;581.00;532.42;;;14.40;94.60;;;13.52;100.00;100448.84;5091740;28;20413;-63
2021/11/23 08:35:55;;;;;;;568.25;520.22;;;14.40;94.50;;;13.48;100.00;100445.97;5091711;28;20495;-66
2021/11/23 08:38:23;;;;;;;576.30;528.10;;;14.40;94.60;;;13.58;100.00;100455.72;5091047;28;20524;-62
2021/11/23 08:40:51;;;;;;;583.15;535.05;;;14.40;94.80;;;13.82;100.00;100450.63;5092134;28;20405;-63
2021/11/23 08:43:19;;;;;;;592.35;543.80;;;14.60;95.00;;;13.85;100.00;100449.97;5070087;28;20514;-63
2021/11/23 08:45:49;;;;;;;585.10;536.90;;;14.70;94.40;;;13.68;100.00;100458.91;5071069;28;20468;-64
2021/11/23 08:48:17;;;;;;;585.17;536.90;;;14.60;94.10;;;13.57;100.00;100459.56;5068595;28;20474;-62
2021/11/23 08:50:47;;;;;;;583.25;535.08;;;14.50;94.10;;;13.50;100.00;100456.50;5071768;28;20407;-68
2021/11/23 08:53:15;;;;;;;573.90;525.85;;;14.40;94.20;;;13.59;100.00;100457.31;5071661;28;21255;-67
2021/11/23 08:55:43;;;;;;;587.17;539.00;;;14.40;94.40;;;13.91;100.00;100462.28;5070802;28;20424;-66
2021/11/23 08:58:13;;;;;;;601.28;553.00;;;14.70;94.20;;;14.21;100.00;100466.75;5071452;28;20419;-64
2021/11/23 09:00:42;;;;;;;616.92;568.40;;;15.00;94.10;;;14.45;100.00;100463.53;5071134;28;20411;-63
2021/11/23 09:03:10;;;;;;;624.30;575.33;;;15.20;93.70;;;14.68;100.00;100453.22;5071515;28;20411;-66
2021/11/23 09:05:38;;;;;;;641.33;592.33;;;15.50;93.40;;;14.95;100.00;100452.00;5070833;28;20533;-65
2021/11/23 09:08:08;;;;;;;647.25;598.25;;;15.70;92.90;;;15.09;100.00;100453.34;5071196;28;20515;-64
2021/11/23 09:10:40;;;;;;;656.05;606.65;;;15.90;92.80;;;14.90;100.00;100469.28;5071142;28;20450;-65
2021/11/23 09:13:09;;;;;;;652.72;603.53;;;15.80;92.10;;;14.67;100.00;100462.50;5071095;28;20422;-64
2021/11/23 09:15:38;;;;;;;655.38;606.15;;;15.60;92.20;;;14.79;100.00;100465.34;5070528;28;20532;-64
2021/11/23 09:18:09;;;;;;;655.23;605.70;;;15.60;92.70;;;14.95;100.00;100466.41;5071315;28;20415;-67
2021/11/23 09:20:38;;;;;;;657.25;607.92;;;15.70;92.60;;;15.09;100.00;100463.44;5071105;28;20412;-67
2021/11/23 09:23:12;;;;;;;650.85;601.88;;;15.90;92.50;;;15.17;100.00;100468.84;5071022;28;20415;-65
2021/11/23 09:25:41;;;;;;;672.85;623.25;;;16.00;92.00;;;15.31;100.00;100468.63;5070273;28;20439;-67
2021/11/23 09:28:10;;;;;;;676.03;626.53;;;16.20;92.20;;;15.10;100.00;100468.56;5071108;28;20447;-67
2021/11/23 09:30:39;;;;;;;670.63;620.85;;;16.00;92.00;;;14.81;100.00;100468.53;5071042;28;20451;-65
2021/11/23 09:33:08;;;;;;;668.60;618.92;;;15.70;92.10;;;14.85;100.00;100468.69;5071054;28;20755;-64
2021/11/23 09:35:36;;;;;;;663.58;614.15;;;15.70;92.40;;;15.03;100.00;100467.47;5069847;28;20794;-68
2021/11/23 09:38:05;;;;;;;668.83;619.17;;;15.80;92.00;;;15.22;100.00;100467.88;5070672;28;20443;-65
2021/11/23 09:40:36;;;;;;;679.00;628.95;;;16.10;92.20;;;15.35;100.00;100458.63;5070763;28;20411;-67
2021/11/23 09:43:05;;;;;;;685.22;635.45;;;16.20;91.90;;;15.44;100.00;100448.47;5088996;28;20421;-67
2021/11/23 09:45:33;;;;;;;689.17;638.97;;;16.30;91.70;;;15.57;100.00;100460.28;5090447;28;20738;-64
2021/11/23 09:48:06;;;;;;;694.47;644.27;;;16.40;92.00;;;15.68;100.00;100459.59;5090728;28;20453;-65
2021/11/23 09:50:38;;;;;;;701.63;649.87;;;16.50;91.70;;;15.87;100.00;100459.09;5090594;28;20815;-67